createdAt,value
2018-02-06T00:01:26.732Z,1.10
2018-02-06T00:03:52.899Z,1.10
2018-02-06T00:06:19.102Z,1.00
2018-02-06T00:08:45.266Z,1.00
2018-02-06T00:11:11.423Z,0.90
2018-02-06T00:13:37.646Z,1.00
2018-02-06T00:16:04.548Z,1.00
2018-02-06T00:18:30.721Z,0.90
2018-02-06T00:20:57.653Z,0.90
2018-02-06T00:23:24.541Z,0.90
2018-02-06T00:25:50.743Z,0.90
2018-02-06T00:28:17.675Z,0.90
2018-02-06T00:30:44.646Z,1.00
2018-02-06T00:33:10.855Z,0.90
2018-02-06T00:35:37.801Z,0.90
2018-02-06T00:38:04.344Z,0.90
2018-02-06T00:40:31.326Z,0.90
2018-02-06T00:42:57.485Z,0.80
2018-02-06T00:45:23.677Z,0.80
2018-02-06T00:47:49.856Z,0.90
2018-02-06T00:50:16.063Z,0.90
2018-02-06T00:52:42.228Z,0.90
2018-02-06T00:55:09.156Z,0.90
2018-02-06T00:57:35.352Z,0.80
2018-02-06T01:00:01.517Z,0.80
2018-02-06T01:02:28.431Z,0.80
2018-02-06T01:04:54.575Z,0.80
2018-02-06T01:07:20.741Z,0.80
2018-02-06T01:09:46.897Z,0.50
2018-02-06T01:12:13.061Z,0.70
2018-02-06T01:14:39.225Z,0.70
2018-02-06T01:17:06.193Z,0.70
2018-02-06T01:19:32.381Z,0.60
2018-02-06T01:22:00.159Z,0.80
2018-02-06T01:24:26.322Z,0.80
2018-02-06T01:26:52.494Z,0.80
2018-02-06T01:29:19.434Z,0.80
2018-02-06T01:31:45.613Z,0.70
2018-02-06T01:34:11.822Z,0.80
2018-02-06T01:36:37.954Z,0.80
2018-02-06T01:39:04.134Z,0.80
2018-02-06T01:41:30.306Z,0.70
2018-02-06T01:43:56.487Z,0.70
2018-02-06T01:46:22.630Z,0.80
2018-02-06T01:48:49.553Z,0.80
2018-02-06T01:51:15.758Z,0.80
2018-02-06T01:53:41.979Z,0.80
2018-02-06T01:56:08.155Z,0.80
2018-02-06T01:58:35.058Z,0.70
2018-02-06T02:01:01.228Z,0.70
2018-02-06T02:03:27.416Z,0.70
2018-02-06T02:05:53.567Z,0.70
2018-02-06T02:08:19.753Z,0.70
2018-02-06T02:10:45.903Z,0.70
2018-02-06T02:13:12.096Z,0.70
2018-02-06T02:15:38.238Z,0.70
2018-02-06T02:18:04.472Z,0.90
2018-02-06T02:20:30.623Z,0.70
2018-02-06T02:22:56.832Z,0.70
2018-02-06T02:25:23.027Z,0.70
2018-02-06T02:27:49.903Z,0.70
2018-02-06T02:30:16.814Z,0.70
2018-02-06T02:32:43.941Z,0.70
2018-02-06T02:35:10.261Z,0.60
2018-02-06T02:37:36.483Z,0.80
2018-02-06T02:40:02.709Z,0.60
2018-02-06T04:39:44.753Z,0.60
2018-02-06T04:42:10.977Z,0.60
2018-02-06T04:44:37.120Z,0.50
2018-02-06T04:47:04.056Z,0.60
2018-02-06T04:49:30.228Z,0.60
2018-02-06T04:51:56.413Z,0.70
2018-02-06T04:54:22.540Z,0.60
2018-02-06T04:56:48.691Z,0.60
2018-02-06T04:59:16.572Z,0.60
2018-02-06T05:01:42.750Z,0.60
2018-02-06T05:04:08.912Z,0.60
2018-02-06T05:06:36.565Z,0.60
2018-02-06T05:09:06.570Z,0.60
2018-02-06T05:11:32.765Z,0.60
2018-02-06T05:13:59.633Z,0.70
2018-02-06T05:16:27.283Z,0.60
2018-02-06T05:18:53.450Z,0.60
2018-02-06T05:21:20.333Z,0.70
2018-02-06T05:23:46.510Z,0.60
2018-02-06T05:26:12.700Z,0.60
2018-02-06T05:28:38.853Z,0.60
2018-02-06T05:31:05.001Z,0.60
2018-02-06T05:33:31.910Z,0.60
2018-02-06T05:35:58.115Z,0.60
2018-02-06T05:38:24.325Z,0.60
2018-02-06T05:40:50.521Z,0.60
2018-02-06T05:43:16.712Z,0.60
2018-02-06T05:45:42.886Z,0.50
2018-02-06T05:48:09.808Z,0.60
2018-02-06T05:50:36.002Z,0.60
2018-02-06T05:53:02.161Z,0.60
2018-02-06T05:55:28.356Z,0.60
2018-02-06T05:57:54.577Z,0.60
2018-02-06T06:00:20.743Z,0.60
2018-02-06T06:02:46.973Z,0.60
2018-02-06T06:05:13.155Z,0.60
2018-02-06T06:07:39.299Z,0.60
2018-02-06T06:10:05.493Z,0.60
2018-02-06T06:12:32.436Z,0.70
2018-02-06T06:14:59.349Z,0.70
2018-02-06T06:17:25.551Z,0.70
2018-02-06T06:19:51.728Z,0.70
2018-02-06T06:22:18.622Z,0.70
2018-02-06T06:24:44.869Z,0.70
2018-02-06T06:27:11.062Z,0.70
2018-02-06T06:29:37.314Z,0.60
2018-02-06T06:32:03.527Z,0.70
2018-02-06T06:34:30.473Z,0.70
2018-02-06T06:36:56.629Z,0.70
2018-02-06T06:39:22.827Z,0.60
2018-02-06T06:41:49.041Z,0.60
2018-02-06T06:44:15.214Z,0.70
2018-02-06T06:46:41.447Z,0.70
2018-02-06T06:49:07.707Z,0.60
2018-02-06T06:51:34.698Z,0.60
2018-02-06T06:54:00.919Z,0.60
2018-02-06T06:56:27.112Z,0.70
2018-02-06T06:58:54.042Z,0.60
2018-02-06T07:01:20.213Z,0.60
2018-02-06T07:03:46.393Z,0.60
2018-02-06T07:06:12.589Z,0.70
2018-02-06T07:08:38.773Z,0.70
2018-02-06T07:11:05.677Z,0.70
2018-02-06T07:13:31.824Z,0.70
2018-02-06T07:15:59.590Z,0.70
2018-02-06T07:18:25.782Z,0.70
2018-02-06T07:20:51.934Z,0.70
2018-02-06T07:23:18.131Z,0.70
2018-02-06T07:25:44.318Z,0.70
2018-02-06T07:28:11.269Z,0.70
2018-02-06T07:30:38.221Z,0.70
2018-02-06T07:33:05.138Z,0.80
2018-02-06T07:35:31.353Z,0.70
2018-02-06T07:37:57.567Z,0.70
2018-02-06T07:40:23.768Z,0.80
2018-02-06T07:42:49.957Z,0.90
2018-02-06T07:45:16.122Z,0.90
2018-02-06T07:47:42.342Z,0.90
2018-02-06T07:50:08.550Z,1.00
2018-02-06T07:52:56.706Z,1.10
2018-02-06T07:55:23.672Z,1.90
2018-02-06T07:57:49.951Z,2.50
2018-02-06T08:00:16.429Z,2.50
2018-02-06T08:02:42.835Z,3.00
2018-02-06T08:05:08.998Z,3.50
2018-02-06T08:07:35.166Z,3.50
2018-02-06T08:10:01.315Z,3.40
2018-02-06T08:12:27.569Z,2.30
2018-02-06T08:14:53.818Z,1.90
2018-02-06T08:17:19.993Z,1.90
2018-02-06T08:19:46.196Z,1.90
2018-02-06T08:22:12.363Z,1.70
2018-02-06T08:24:39.260Z,1.30
2018-02-06T08:27:05.471Z,1.30
2018-02-06T08:29:31.611Z,1.30
2018-02-06T08:31:57.824Z,1.30
2018-02-06T08:34:24.013Z,1.30
2018-02-06T08:36:50.260Z,1.30
2018-02-06T08:39:17.234Z,1.40
2018-02-06T08:41:43.467Z,1.40
2018-02-06T08:44:09.644Z,1.20
2018-02-06T08:46:36.008Z,1.30
2018-02-06T08:49:02.201Z,1.40
2018-02-06T08:51:28.408Z,1.40
2018-02-06T08:53:54.587Z,1.50
2018-02-06T08:56:22.185Z,1.50
2018-02-06T08:58:48.416Z,1.50
2018-02-06T09:01:14.630Z,1.50
2018-02-06T09:03:40.830Z,1.60
2018-02-06T09:06:09.376Z,1.70
2018-02-06T09:08:35.546Z,1.70
2018-02-06T09:11:01.771Z,1.50
2018-02-06T09:13:28.006Z,1.60
2018-02-06T09:15:54.231Z,1.60
2018-02-06T09:18:20.514Z,1.60
2018-02-06T09:20:46.836Z,1.70
2018-02-06T09:23:13.031Z,1.60
2018-02-06T09:25:39.772Z,1.60
2018-02-06T09:28:06.024Z,1.50
2018-02-06T09:30:32.221Z,1.50
2018-02-06T09:32:58.406Z,1.50
2018-02-06T09:35:24.590Z,1.50
2018-02-06T09:37:50.781Z,1.50
2018-02-06T09:40:16.986Z,1.60
2018-02-06T09:42:43.185Z,1.50
2018-02-06T09:45:09.360Z,1.40
2018-02-06T09:47:35.569Z,1.60
2018-02-06T09:50:02.102Z,1.70
2018-02-06T09:52:28.319Z,1.70
2018-02-06T09:54:54.460Z,1.90
2018-02-06T09:57:20.671Z,2.10
2018-02-06T09:59:46.889Z,2.10
2018-02-06T10:02:13.082Z,2.20
2018-02-06T10:04:39.981Z,2.40
2018-02-06T10:07:06.168Z,2.40
2018-02-06T10:09:32.337Z,2.70
2018-02-06T10:11:58.540Z,2.50
2018-02-06T10:14:24.752Z,2.50
2018-02-06T10:16:51.252Z,2.50
2018-02-06T10:19:17.430Z,2.50
2018-02-06T10:21:43.607Z,2.50
2018-02-06T10:24:09.829Z,2.40
2018-02-06T10:26:35.973Z,2.50
2018-02-06T10:29:02.151Z,2.60
2018-02-06T10:31:28.333Z,2.70
2018-02-06T10:33:54.540Z,2.80
2018-02-06T10:36:20.704Z,2.80
2018-02-06T10:38:47.671Z,3.10
2018-02-06T10:41:13.853Z,3.20
2018-02-06T10:43:40.018Z,3.30
2018-02-06T10:46:06.250Z,3.30
2018-02-06T10:48:32.406Z,3.40
2018-02-06T10:50:58.611Z,3.40
2018-02-06T10:53:24.782Z,3.30
2018-02-06T10:55:50.966Z,3.10
2018-02-06T10:58:17.155Z,3.00
2018-02-06T11:00:43.541Z,2.80
2018-02-06T11:03:09.714Z,2.80
2018-02-06T11:05:36.051Z,2.80
2018-02-06T11:08:02.261Z,2.70
2018-02-06T11:10:28.566Z,2.80
2018-02-06T11:12:54.803Z,2.70
2018-02-06T11:15:21.464Z,2.70
2018-02-06T11:17:47.665Z,2.70
2018-02-06T11:20:13.942Z,2.80
2018-02-06T11:22:40.954Z,2.80
2018-02-06T11:25:07.159Z,2.80
2018-02-06T11:27:33.415Z,3.60
2018-02-06T11:29:59.664Z,4.10
2018-02-06T11:32:25.903Z,4.60
2018-02-06T11:34:52.088Z,4.60
2018-02-06T11:37:18.519Z,4.20
2018-02-06T11:39:44.721Z,3.90
2018-02-06T11:42:10.887Z,3.70
2018-02-06T11:44:37.062Z,3.50
2018-02-06T11:47:04.009Z,3.40
2018-02-06T11:49:30.947Z,3.20
2018-02-06T11:51:57.126Z,3.20
2018-02-06T11:54:23.343Z,3.00
2018-02-06T11:56:49.544Z,3.00
2018-02-06T11:59:16.689Z,2.90
2018-02-06T12:01:42.910Z,2.90
2018-02-06T12:04:09.832Z,2.90
2018-02-06T12:06:36.042Z,3.00
2018-02-06T12:09:03.277Z,3.00
2018-02-06T12:11:29.486Z,3.00
2018-02-06T12:13:55.674Z,3.30
2018-02-06T12:16:21.816Z,3.20
2018-02-06T12:18:48.731Z,3.30
2018-02-06T12:21:14.894Z,3.30
2018-02-06T12:23:41.841Z,3.20
2018-02-06T12:26:08.779Z,3.00
2018-02-06T12:28:34.978Z,2.90
2018-02-06T12:31:01.198Z,2.90
2018-02-06T12:33:27.371Z,2.70
2018-02-06T12:35:54.319Z,2.70
2018-02-06T12:38:21.241Z,2.70
2018-02-06T12:40:48.114Z,2.70
2018-02-06T12:43:15.055Z,2.70
2018-02-06T12:45:41.990Z,2.70
2018-02-06T12:48:08.142Z,2.70
2018-02-06T12:50:34.326Z,2.60
2018-02-06T12:53:00.494Z,2.50
2018-02-06T12:55:26.820Z,2.60
2018-02-06T12:57:54.959Z,2.60
2018-02-06T13:00:30.893Z,2.50
2018-02-06T13:08:21.845Z,2.60
2018-02-06T13:10:48.822Z,2.70
2018-02-06T13:13:15.003Z,2.70
2018-02-06T13:15:41.188Z,2.60
2018-02-06T13:18:08.097Z,2.60
2018-02-06T13:20:34.295Z,2.60
2018-02-06T13:23:00.473Z,2.60
2018-02-06T13:25:26.677Z,2.60
2018-02-06T13:27:52.894Z,2.60
2018-02-06T13:30:19.053Z,2.60
2018-02-06T13:32:45.234Z,2.80
2018-02-06T13:35:11.450Z,2.90
2018-02-06T13:37:37.638Z,2.90
2018-02-06T13:40:03.813Z,2.90
2018-02-06T13:42:30.026Z,2.90
2018-02-06T13:44:56.200Z,2.90
2018-02-06T13:47:22.412Z,2.90
2018-02-06T13:49:48.649Z,2.70
2018-02-06T13:52:15.773Z,2.70
2018-02-06T13:54:41.984Z,2.50
2018-02-06T13:57:08.914Z,2.50
2018-02-06T13:59:35.855Z,2.50
2018-02-06T14:02:02.059Z,2.50
2018-02-06T14:04:28.227Z,2.80
2018-02-06T14:06:55.213Z,2.80
2018-02-06T14:09:22.011Z,2.70
2018-02-06T14:11:48.265Z,2.70
2018-02-06T14:14:14.438Z,2.60
2018-02-06T14:16:40.674Z,2.60
2018-02-06T14:19:06.848Z,2.60
2018-02-06T14:21:33.082Z,2.60
2018-02-06T14:23:59.278Z,2.80
2018-02-06T14:26:25.540Z,2.70
2018-02-06T14:28:53.198Z,2.70
2018-02-06T14:31:19.415Z,2.70
2018-02-06T14:33:45.641Z,2.60
2018-02-06T14:36:12.577Z,2.60
2018-02-06T14:38:39.539Z,2.60
2018-02-06T14:41:06.485Z,2.50
2018-02-06T14:43:33.406Z,2.50
2018-02-06T14:45:59.600Z,2.50
2018-02-06T14:48:25.800Z,2.60
2018-02-06T14:50:52.324Z,2.60
2018-02-06T14:53:18.619Z,2.50
2018-02-06T14:55:45.562Z,2.60
2018-02-06T14:58:11.781Z,2.50
2018-02-06T15:00:37.986Z,2.60
2018-02-06T15:03:04.146Z,2.50
2018-02-06T15:05:30.391Z,2.60
2018-02-06T15:07:56.581Z,2.50
2018-02-06T15:10:22.834Z,2.60
2018-02-06T15:12:49.439Z,2.60
2018-02-06T15:15:15.688Z,2.30
2018-02-06T15:17:41.910Z,2.70
2018-02-06T15:20:08.128Z,2.70
2018-02-06T15:22:35.116Z,2.70
2018-02-06T15:25:01.342Z,2.70
2018-02-06T15:27:29.610Z,2.70
2018-02-06T15:29:55.749Z,2.70
2018-02-06T15:32:21.930Z,2.70
2018-02-06T15:34:49.250Z,2.60
2018-02-06T15:37:16.261Z,2.60
2018-02-06T15:39:42.441Z,2.50
2018-02-06T15:42:08.595Z,2.50
2018-02-06T15:44:34.799Z,0.30
2018-02-06T15:47:01.075Z,2.50
2018-02-06T15:49:27.234Z,2.50
2018-02-06T15:51:54.169Z,2.50
2018-02-06T15:54:21.119Z,2.30
2018-02-06T15:56:48.063Z,2.40
2018-02-06T15:59:14.310Z,2.40
2018-02-06T16:01:42.480Z,2.40
2018-02-06T16:04:09.441Z,2.30
2018-02-06T16:06:35.649Z,2.30
2018-02-06T16:09:01.868Z,2.20
2018-02-06T16:11:28.024Z,2.40
2018-02-06T16:13:54.306Z,2.40
2018-02-06T16:16:20.497Z,2.40
2018-02-06T16:18:46.692Z,2.40
2018-02-06T16:21:12.899Z,2.40
2018-02-06T16:23:39.085Z,2.40
2018-02-06T16:26:05.650Z,2.40
2018-02-06T16:28:31.881Z,2.40
2018-02-06T16:30:58.206Z,2.40
2018-02-06T16:33:24.403Z,2.40
2018-02-06T16:35:50.614Z,2.30
2018-02-06T16:38:17.555Z,2.20
2018-02-06T16:40:44.544Z,2.20
2018-02-06T16:43:10.781Z,2.10
2018-02-06T16:45:37.016Z,2.40
2018-02-06T16:48:03.178Z,2.30
2018-02-06T16:50:29.334Z,2.20
2018-02-06T16:52:55.569Z,2.20
2018-02-06T16:55:22.122Z,2.30
2018-02-06T16:57:48.308Z,2.20
2018-02-06T17:00:30.225Z,2.10
2018-02-06T17:02:56.397Z,2.10
2018-02-06T17:05:22.581Z,2.10
2018-02-06T17:07:48.818Z,2.20
2018-02-06T17:10:15.042Z,2.20
2018-02-06T17:12:41.240Z,2.20
2018-02-06T17:15:07.456Z,2.20
2018-02-06T17:17:33.640Z,2.20
2018-02-06T17:19:59.833Z,2.20
2018-02-06T17:22:26.815Z,2.20
2018-02-06T17:24:53.003Z,2.20
2018-02-06T17:27:19.934Z,2.20
2018-02-06T17:29:46.105Z,2.20
2018-02-06T17:32:12.310Z,2.20
2018-02-06T17:34:39.285Z,2.10
2018-02-06T17:37:05.943Z,2.10
2018-02-06T17:39:32.177Z,2.10
2018-02-06T17:41:58.388Z,2.10
2018-02-06T17:44:24.568Z,-0.20
2018-02-06T17:46:50.776Z,2.10
2018-02-06T17:49:17.027Z,2.10
2018-02-06T17:51:43.985Z,2.20
2018-02-06T17:54:10.916Z,2.20
2018-02-06T17:56:37.095Z,2.20
2018-02-06T17:59:03.285Z,2.20
2018-02-06T18:01:30.221Z,2.20
2018-02-06T18:03:56.383Z,2.20
2018-02-06T18:06:22.701Z,2.20
2018-02-06T18:08:49.584Z,2.20
2018-02-06T18:11:15.817Z,2.20
2018-02-06T18:13:42.049Z,2.20
2018-02-06T18:16:08.270Z,2.10
2018-02-06T18:18:34.482Z,2.20
2018-02-06T18:21:00.680Z,2.20
2018-02-06T18:23:27.706Z,2.20
2018-02-06T18:25:54.032Z,2.20
2018-02-06T18:28:20.274Z,2.30
2018-02-06T18:30:46.497Z,2.20
2018-02-06T18:33:12.959Z,2.30
2018-02-06T18:35:39.888Z,2.30
2018-02-06T18:38:06.082Z,2.30
2018-02-06T18:40:32.710Z,2.20
2018-02-06T18:42:58.944Z,2.20
2018-02-06T18:45:25.135Z,2.20
2018-02-06T18:47:51.390Z,2.30
2018-02-06T18:50:17.591Z,2.30
2018-02-06T18:52:43.946Z,2.30
2018-02-06T18:55:10.173Z,2.30
2018-02-06T18:57:36.397Z,2.30
2018-02-06T19:00:02.678Z,2.30
2018-02-06T19:02:30.885Z,2.30
2018-02-06T19:04:57.834Z,2.30
2018-02-06T19:07:25.746Z,2.30
2018-02-06T19:09:52.050Z,2.30
2018-02-06T19:12:18.282Z,2.30
2018-02-06T19:14:44.471Z,2.40
2018-02-06T19:17:10.671Z,2.60
2018-02-06T19:19:36.888Z,3.20
2018-02-06T19:22:03.096Z,3.10
2018-02-06T19:24:29.338Z,2.80
2018-02-06T19:26:55.534Z,2.80
2018-02-06T19:29:22.480Z,2.60
2018-02-06T19:31:48.657Z,2.50
2018-02-06T19:34:14.858Z,2.50
2018-02-06T19:36:41.274Z,2.50
2018-02-06T19:39:07.491Z,2.40
2018-02-06T19:41:34.491Z,2.30
2018-02-06T19:44:00.740Z,2.30
2018-02-06T19:46:26.979Z,2.30
2018-02-06T19:48:53.300Z,2.30
2018-02-06T19:51:19.618Z,2.30
2018-02-06T19:53:45.792Z,2.30
2018-02-06T19:56:12.808Z,2.20
2018-02-06T19:58:39.018Z,2.20
2018-02-06T20:01:05.230Z,2.30
2018-02-06T20:03:31.483Z,2.20
2018-02-06T20:05:57.687Z,2.20
2018-02-06T20:08:23.914Z,2.20
2018-02-06T20:10:50.141Z,2.30
2018-02-06T20:13:16.387Z,2.20
2018-02-06T20:15:42.616Z,2.20
2018-02-06T20:18:14.022Z,2.20
2018-02-06T20:20:40.978Z,2.10
2018-02-06T20:23:07.226Z,2.10
2018-02-06T20:25:33.431Z,2.10
2018-02-06T20:28:00.446Z,2.10
2018-02-06T20:30:26.723Z,2.20
2018-02-06T20:32:54.499Z,2.20
2018-02-06T20:35:20.820Z,2.20
2018-02-06T20:37:47.041Z,2.10
2018-02-06T20:40:13.273Z,2.20
2018-02-06T20:42:40.526Z,2.00
2018-02-06T20:45:06.753Z,2.20
2018-02-06T20:47:32.957Z,2.10
2018-02-06T20:50:01.073Z,2.10
2018-02-06T20:52:27.316Z,2.10
2018-02-06T20:54:53.575Z,2.20
2018-02-06T20:57:19.800Z,2.00
2018-02-06T20:59:46.355Z,2.00
2018-02-06T21:02:13.824Z,2.10
2018-02-06T21:04:40.812Z,2.00
2018-02-06T21:07:07.462Z,2.00
2018-02-06T21:09:33.684Z,2.00
2018-02-06T21:11:59.915Z,2.00
2018-02-06T21:14:26.113Z,2.00
2018-02-06T21:16:52.783Z,2.00
2018-02-06T21:19:18.959Z,2.00
2018-02-06T21:21:45.551Z,2.00
2018-02-06T21:24:11.841Z,2.00
2018-02-06T21:26:38.118Z,1.90
2018-02-06T21:29:06.943Z,1.90
2018-02-06T21:31:34.047Z,1.90
2018-02-06T21:34:00.249Z,1.90
2018-02-06T21:36:26.578Z,1.90
2018-02-06T21:38:52.808Z,1.90
2018-02-06T21:41:19.346Z,1.90
2018-02-06T21:43:46.419Z,1.80
2018-02-06T21:46:13.068Z,1.80
2018-02-06T21:48:39.304Z,1.80
2018-02-06T21:51:05.501Z,1.80
2018-02-06T21:53:31.721Z,1.80
2018-02-06T21:55:57.944Z,1.80
2018-02-06T21:58:39.098Z,1.80
2018-02-06T22:01:06.068Z,1.80
2018-02-06T22:03:32.335Z,1.70
2018-02-06T22:05:58.761Z,1.70
2018-02-06T22:08:25.050Z,1.80
2018-02-06T22:10:51.988Z,1.70
2018-02-06T22:13:18.955Z,1.70
2018-02-06T22:15:45.188Z,1.70
2018-02-06T22:18:11.406Z,1.60
2018-02-06T22:20:37.611Z,1.60
2018-02-06T22:23:03.853Z,1.60
2018-02-06T22:25:30.431Z,1.50
2018-02-06T22:27:56.931Z,1.60
2018-02-06T22:30:23.922Z,1.50
2018-02-06T22:32:50.129Z,1.50
2018-02-06T22:35:16.416Z,1.50
2018-02-06T22:37:42.601Z,1.50
2018-02-06T22:40:08.817Z,1.50
2018-02-06T22:42:34.951Z,1.60
2018-02-06T22:45:01.250Z,1.50
2018-02-06T22:47:27.459Z,1.50
2018-02-06T22:49:53.671Z,1.50
2018-02-06T22:52:19.890Z,1.50
2018-02-06T22:54:46.100Z,1.20
2018-02-06T22:57:12.312Z,1.50
2018-02-06T22:59:38.545Z,1.40
2018-02-06T23:02:04.726Z,1.30
2018-02-06T23:04:30.913Z,0.40
2018-02-06T23:06:57.857Z,1.20
2018-02-06T23:09:24.824Z,1.20
2018-02-06T23:11:51.018Z,1.20
2018-02-06T23:14:17.216Z,1.20
2018-02-06T23:16:44.171Z,1.20
2018-02-06T23:19:26.022Z,1.20
2018-02-06T23:21:52.281Z,1.10
2018-02-06T23:24:19.261Z,1.20
2018-02-06T23:26:45.414Z,1.20
2018-02-06T23:29:11.652Z,1.20
2018-02-06T23:31:37.833Z,1.20
2018-02-06T23:34:04.729Z,1.10
2018-02-06T23:36:30.931Z,1.10
2018-02-06T23:38:57.239Z,1.10
2018-02-06T23:41:23.414Z,1.10
2018-02-06T23:43:49.612Z,1.20
2018-02-06T23:46:16.223Z,1.10
2018-02-06T23:48:43.130Z,1.20
2018-02-06T23:51:09.323Z,1.20
2018-02-06T23:53:35.510Z,1.20
2018-02-06T23:56:01.820Z,1.10
2018-02-06T23:58:28.010Z,1.10
